Time,TemperatureF,DewpointF,PressureIn,WindDirection,WindDirectionDegrees,WindSpeedMPH,WindSpeedGustMPH,Humidity,HourlyPrecipIn,Conditions,Clouds,dailyrainin,SoftwareType,DateUTC
2013-01-25 00:04:00,22.5,4.8,29.44,East,90,2.7,3.6,46,0.00,,---,0.00,VWS V14.01,2013-01-25 06:04:00,
2013-01-25 00:09:00,22.5,4.8,29.44,South,180,3.6,3.6,46,0.00,,---,0.00,VWS V14.01,2013-01-25 06:09:00,
2013-01-25 00:14:00,22.6,5.0,29.44,South,180,1.1,2.2,46,0.00,,---,0.00,VWS V14.01,2013-01-25 06:14:00,
2013-01-25 00:20:00,22.5,4.8,29.44,SE,135,3.8,3.8,46,0.00,,---,0.00,VWS V14.01,2013-01-25 06:20:00,
2013-01-25 00:25:00,22.6,5.0,29.44,SSE,158,3.6,6.0,46,0.00,,---,0.00,VWS V14.01,2013-01-25 06:25:00,
2013-01-25 00:30:00,22.6,5.0,29.44,SE,135,2.9,3.4,46,0.00,,---,0.00,VWS V14.01,2013-01-25 06:30:00,
2013-01-25 00:35:00,22.6,5.0,29.44,SE,135,3.1,3.1,46,0.00,,---,0.00,VWS V14.01,2013-01-25 06:35:00,
2013-01-25 00:40:00,22.5,4.8,29.44,SSE,158,5.8,5.8,46,0.00,,---,0.00,VWS V14.01,2013-01-25 06:40:00,
2013-01-25 00:45:00,22.5,4.3,29.41,East,90,2.9,2.9,45,0.00,,---,0.00,VWS V14.01,2013-01-25 06:45:00,
2013-01-25 00:50:00,22.6,5.0,29.41,South,180,4.5,4.5,46,0.00,,---,0.00,VWS V14.01,2013-01-25 06:50:00,
2013-01-25 00:55:00,22.6,5.0,29.41,SE,135,10.1,10.1,46,0.00,,---,0.00,VWS V14.01,2013-01-25 06:55:00,
2013-01-25 01:00:00,22.6,5.0,29.41,SE,135,7.4,7.4,46,0.00,,---,0.00,VWS V14.01,2013-01-25 07:00:00,
2013-01-25 01:05:00,22.6,5.0,29.41,SSE,158,2.9,6.9,46,0.00,,---,0.00,VWS V14.01,2013-01-25 07:05:00,
2013-01-25 01:10:00,22.6,5.0,29.41,ESE,112,3.6,3.6,46,0.00,,---,0.00,VWS V14.01,2013-01-25 07:10:00,
2013-01-25 01:15:00,22.6,5.0,29.38,SE,135,3.4,7.2,46,0.00,,---,0.00,VWS V14.01,2013-01-25 07:15:00,
2013-01-25 01:20:00,22.6,5.0,29.38,SSE,158,5.4,7.2,46,0.00,,---,0.00,VWS V14.01,2013-01-25 07:20:00,
2013-01-25 01:25:00,22.8,5.2,29.38,SE,135,4.0,4.3,46,0.00,,---,0.00,VWS V14.01,2013-01-25 07:25:00,
2013-01-25 01:30:00,22.8,5.2,29.38,South,180,3.8,3.8,46,0.00,,---,0.00,VWS V14.01,2013-01-25 07:30:00,
2013-01-25 01:35:00,22.8,5.2,29.38,SE,135,2.9,2.9,46,0.00,,---,0.00,VWS V14.01,2013-01-25 07:35:00,
2013-01-25 01:40:00,22.8,5.2,29.38,WSW,248,0.0,2.5,46,0.00,,---,0.00,VWS V14.01,2013-01-25 07:40:00,
2013-01-25 01:45:00,22.8,5.2,29.38,SSE,158,2.7,2.7,46,0.00,,---,0.00,VWS V14.01,2013-01-25 07:45:00,
2013-01-25 01:51:00,23.0,5.3,29.38,SE,135,1.3,2.7,46,0.00,,---,0.00,VWS V14.01,2013-01-25 07:51:00,
2013-01-25 01:56:00,23.0,5.3,29.38,SE,135,3.8,3.8,46,0.00,,---,0.00,VWS V14.01,2013-01-25 07:56:00,
2013-01-25 02:01:00,23.0,5.3,29.38,South,180,3.1,6.0,46,0.00,,---,0.00,VWS V14.01,2013-01-25 08:01:00,
2013-01-25 02:06:00,23.0,5.3,29.38,South,180,4.0,4.0,46,0.00,,---,0.00,VWS V14.01,2013-01-25 08:06:00,
2013-01-25 02:11:00,23.2,5.0,29.38,SSE,158,5.4,5.8,45,0.00,,---,0.00,VWS V14.01,2013-01-25 08:11:00,
2013-01-25 02:16:00,23.2,5.0,29.35,SSE,158,6.0,6.0,45,0.00,,---,0.00,VWS V14.01,2013-01-25 08:16:00,
2013-01-25 02:21:00,23.2,5.0,29.35,SSE,158,3.6,6.3,45,0.00,,---,0.00,VWS V14.01,2013-01-25 08:21:00,
2013-01-25 02:26:00,23.2,5.0,29.35,East,90,2.2,2.2,45,0.00,,---,0.00,VWS V14.01,2013-01-25 08:26:00,
2013-01-25 02:31:00,23.2,5.0,29.35,SE,135,6.0,6.0,45,0.00,,---,0.00,VWS V14.01,2013-01-25 08:31:00,
2013-01-25 02:36:00,23.2,5.0,29.35,South,180,2.5,3.4,45,0.00,,---,0.00,VWS V14.01,2013-01-25 08:36:00,
2013-01-25 02:41:00,23.2,5.0,29.35,ENE,68,3.6,3.6,45,0.00,,---,0.00,VWS V14.01,2013-01-25 08:41:00,
2013-01-25 02:46:00,23.2,5.0,29.35,SE,135,6.0,6.0,45,0.00,,---,0.00,VWS V14.01,2013-01-25 08:46:00,
2013-01-25 02:51:00,23.2,5.0,29.35,East,90,2.7,2.7,45,0.00,,---,0.00,VWS V14.01,2013-01-25 08:51:00,
2013-01-25 02:56:00,23.2,5.0,29.35,SSW,202,1.6,1.6,45,0.00,,---,0.00,VWS V14.01,2013-01-25 08:56:00,
2013-01-25 03:01:00,23.4,5.2,29.35,ESE,112,3.6,3.6,45,0.00,,---,0.00,VWS V14.01,2013-01-25 09:01:00,
2013-01-25 03:06:00,23.2,5.0,29.35,ESE,112,3.1,3.1,45,0.00,,---,0.00,VWS V14.01,2013-01-25 09:06:00,
2013-01-25 03:11:00,23.4,5.2,29.35,ESE,112,2.5,2.9,45,0.00,,---,0.00,VWS V14.01,2013-01-25 09:11:00,
2013-01-25 03:16:00,23.4,5.2,29.35,South,180,3.8,3.8,45,0.00,,---,0.00,VWS V14.01,2013-01-25 09:16:00,
2013-01-25 03:21:00,23.4,5.2,29.35,ESE,112,2.5,4.9,45,0.00,,---,0.00,VWS V14.01,2013-01-25 09:21:00,
2013-01-25 03:26:00,23.2,5.5,29.35,SSE,158,2.7,3.4,46,0.00,,---,0.00,VWS V14.01,2013-01-25 09:26:00,
2013-01-25 03:31:00,23.4,5.7,29.35,ESE,112,3.1,3.1,46,0.00,,---,0.00,VWS V14.01,2013-01-25 09:31:00,
2013-01-25 03:36:00,23.0,5.3,29.35,East,90,2.2,2.2,46,0.00,,---,0.00,VWS V14.01,2013-01-25 09:36:00,
2013-01-25 03:41:00,23.0,5.8,29.35,SSE,158,2.7,2.7,47,0.00,,---,0.00,VWS V14.01,2013-01-25 09:41:00,
2013-01-25 03:46:00,23.0,5.8,29.32,South,180,2.9,2.9,47,0.00,,---,0.00,VWS V14.01,2013-01-25 09:46:00,
2013-01-25 03:51:00,23.0,5.8,29.32,SE,135,2.9,2.9,47,0.00,,---,0.00,VWS V14.01,2013-01-25 09:51:00,
2013-01-25 03:56:00,22.8,5.6,29.32,ESE,112,1.6,2.0,47,0.00,,---,0.00,VWS V14.01,2013-01-25 09:56:00,
2013-01-25 04:01:00,22.8,6.1,29.32,SSE,158,2.0,2.7,48,0.00,,---,0.00,VWS V14.01,2013-01-25 10:01:00,
2013-01-25 04:06:00,22.8,6.1,29.32,SE,135,2.5,2.5,48,0.00,,---,0.00,VWS V14.01,2013-01-25 10:06:00,
2013-01-25 04:11:00,22.8,6.1,29.32,SSE,158,3.4,3.4,48,0.00,,---,0.00,VWS V14.01,2013-01-25 10:11:00,
2013-01-25 04:16:00,22.6,6.4,29.32,SE,135,1.6,4.3,49,0.00,,---,0.00,VWS V14.01,2013-01-25 10:16:00,
2013-01-25 04:21:00,22.6,6.4,29.32,SW,225,1.6,2.9,49,0.00,,---,0.00,VWS V14.01,2013-01-25 10:21:00,
2013-01-25 04:27:00,22.6,6.4,29.32,South,180,3.6,3.6,49,0.00,,---,0.00,VWS V14.01,2013-01-25 10:27:00,
2013-01-25 04:32:00,22.5,6.2,29.32,ESE,112,3.6,3.6,49,0.00,,---,0.00,VWS V14.01,2013-01-25 10:32:00,
2013-01-25 04:37:00,22.5,6.6,29.32,SSE,158,2.9,3.6,50,0.00,,---,0.00,VWS V14.01,2013-01-25 10:37:00,
2013-01-25 04:42:00,22.3,6.5,29.32,SE,135,4.3,5.8,50,0.00,,---,0.00,VWS V14.01,2013-01-25 10:42:00,
2013-01-25 04:47:00,22.3,6.9,29.32,SSE,158,2.9,2.9,51,0.00,,---,0.00,VWS V14.01,2013-01-25 10:47:00,
2013-01-25 04:52:00,22.3,6.9,29.32,South,180,2.9,4.0,51,0.00,,---,0.00,VWS V14.01,2013-01-25 10:52:00,
2013-01-25 04:57:00,22.1,6.8,29.32,South,180,4.7,4.7,51,0.00,,---,0.00,VWS V14.01,2013-01-25 10:57:00,
2013-01-25 05:02:00,22.1,7.2,29.29,ESE,112,6.3,6.3,52,0.00,,---,0.00,VWS V14.01,2013-01-25 11:02:00,
2013-01-25 05:07:00,21.9,7.0,29.29,SSE,158,5.4,5.4,52,0.00,,---,0.00,VWS V14.01,2013-01-25 11:07:00,
2013-01-25 05:12:00,21.9,7.0,29.29,SSE,158,2.5,2.9,52,0.00,,---,0.00,VWS V14.01,2013-01-25 11:12:00,
2013-01-25 05:17:00,21.9,7.4,29.29,SSE,158,3.4,7.2,53,0.00,,---,0.00,VWS V14.01,2013-01-25 11:17:00,
2013-01-25 05:22:00,21.9,7.4,29.29,South,180,4.7,4.7,53,0.00,,---,0.00,VWS V14.01,2013-01-25 11:22:00,
2013-01-25 05:27:00,21.9,7.4,29.29,SW,225,3.4,3.4,53,0.00,,---,0.00,VWS V14.01,2013-01-25 11:27:00,
2013-01-25 05:32:00,21.9,7.4,29.29,SSE,158,3.8,5.4,53,0.00,,---,0.00,VWS V14.01,2013-01-25 11:32:00,
2013-01-25 05:37:00,21.9,7.4,29.29,SSW,202,4.9,4.9,53,0.00,,---,0.00,VWS V14.01,2013-01-25 11:37:00,
2013-01-25 05:43:00,21.9,7.8,29.29,SE,135,2.7,3.4,54,0.00,,---,0.00,VWS V14.01,2013-01-25 11:43:00,
2013-01-25 05:48:00,21.9,7.8,29.29,South,180,0.0,3.1,54,0.00,,---,0.00,VWS V14.01,2013-01-25 11:48:00,
2013-01-25 05:53:00,21.9,7.8,29.29,SE,135,1.6,3.6,54,0.00,,---,0.00,VWS V14.01,2013-01-25 11:53:00,
2013-01-25 05:58:00,21.9,7.8,29.29,SSW,202,4.0,4.0,54,0.00,,---,0.00,VWS V14.01,2013-01-25 11:58:00,
2013-01-25 06:03:00,21.9,7.8,29.29,SSW,202,2.5,2.5,54,0.00,,---,0.00,VWS V14.01,2013-01-25 12:03:00,
2013-01-25 06:08:00,22.1,8.0,29.29,SSE,158,2.0,2.9,54,0.00,,---,0.00,VWS V14.01,2013-01-25 12:08:00,
2013-01-25 06:13:00,21.9,7.8,29.29,SW,225,2.0,2.0,54,0.00,,---,0.00,VWS V14.01,2013-01-25 12:13:00,
2013-01-25 06:18:00,22.1,8.4,29.29,SW,225,0.0,1.6,55,0.00,,---,0.00,VWS V14.01,2013-01-25 12:18:00,
2013-01-25 06:23:00,22.1,8.4,29.29,SSW,202,3.4,3.6,55,0.00,,---,0.00,VWS V14.01,2013-01-25 12:23:00,
2013-01-25 06:28:00,22.1,8.4,29.29,South,180,3.1,3.6,55,0.00,,---,0.00,VWS V14.01,2013-01-25 12:28:00,
2013-01-25 06:33:00,22.1,8.4,29.29,South,180,2.5,2.5,55,0.00,,---,0.00,VWS V14.01,2013-01-25 12:33:00,
2013-01-25 06:38:00,22.3,8.6,29.29,South,180,2.0,2.0,55,0.00,,---,0.00,VWS V14.01,2013-01-25 12:38:00,
2013-01-25 06:43:00,22.3,8.6,29.29,SE,135,0.0,2.5,55,0.00,,---,0.00,VWS V14.01,2013-01-25 12:43:00,
2013-01-25 06:48:00,22.3,8.6,29.29,SE,135,2.2,2.2,55,0.00,,---,0.00,VWS V14.01,2013-01-25 12:48:00,
2013-01-25 06:53:00,22.3,8.6,29.29,SSW,202,3.8,3.8,55,0.00,,---,0.00,VWS V14.01,2013-01-25 12:53:00,
2013-01-25 06:58:00,22.3,9.0,29.29,SSE,158,3.6,3.6,56,0.00,,---,0.00,VWS V14.01,2013-01-25 12:58:00,
2013-01-25 07:03:00,22.3,8.6,29.29,SSW,202,2.7,2.9,55,0.00,,---,0.00,VWS V14.01,2013-01-25 13:03:00,
2013-01-25 07:08:00,22.5,9.1,29.29,South,180,2.7,2.7,56,0.00,,---,0.00,VWS V14.01,2013-01-25 13:08:00,
2013-01-25 07:13:00,22.5,9.1,29.29,SE,135,1.1,1.1,56,0.00,,---,0.00,VWS V14.01,2013-01-25 13:13:00,
2013-01-25 07:18:00,22.5,9.1,29.29,South,180,2.7,3.4,56,0.00,,---,0.00,VWS V14.01,2013-01-25 13:18:00,
2013-01-25 07:24:00,22.5,9.1,29.29,South,180,3.1,3.1,56,0.00,,---,0.00,VWS V14.01,2013-01-25 13:24:00,
2013-01-25 07:29:00,22.5,9.1,29.29,SW,225,2.9,2.9,56,0.00,,---,0.00,VWS V14.01,2013-01-25 13:29:00,
2013-01-25 07:34:00,22.5,9.1,29.29,SSE,158,2.7,2.7,56,0.00,,---,0.00,VWS V14.01,2013-01-25 13:34:00,
2013-01-25 07:39:00,22.5,9.1,29.29,SSE,158,3.4,3.6,56,0.00,,---,0.00,VWS V14.01,2013-01-25 13:39:00,
2013-01-25 07:44:00,22.6,9.3,29.29,South,180,4.3,4.3,56,0.00,,---,0.00,VWS V14.01,2013-01-25 13:44:00,
2013-01-25 07:49:00,22.6,9.3,29.29,SSW,202,3.1,3.1,56,0.00,,---,0.00,VWS V14.01,2013-01-25 13:49:00,
2013-01-25 07:54:00,22.6,9.3,29.29,South,180,3.1,3.1,56,0.00,,---,0.00,VWS V14.01,2013-01-25 13:54:00,
2013-01-25 07:59:00,22.6,9.3,29.29,South,180,2.0,4.7,56,0.00,,---,0.00,VWS V14.01,2013-01-25 13:59:00,
2013-01-25 08:04:00,22.8,9.9,29.29,South,180,2.7,3.1,57,0.00,,---,0.00,VWS V14.01,2013-01-25 14:04:00,
2013-01-25 08:09:00,22.8,9.9,29.29,East,90,2.9,2.9,57,0.00,,---,0.00,VWS V14.01,2013-01-25 14:09:00,
2013-01-25 08:14:00,23.0,10.1,29.26,South,180,2.5,4.7,57,0.00,,---,0.00,VWS V14.01,2013-01-25 14:14:00,
2013-01-25 08:19:00,23.2,10.2,29.26,SSW,202,3.8,3.8,57,0.00,,---,0.00,VWS V14.01,2013-01-25 14:19:00,
2013-01-25 08:24:00,23.4,10.4,29.26,SSE,158,3.1,3.6,57,0.00,,---,0.00,VWS V14.01,2013-01-25 14:24:00,
2013-01-25 08:29:00,23.4,10.0,29.26,SSW,202,2.5,2.5,56,0.00,,---,0.00,VWS V14.01,2013-01-25 14:29:00,
2013-01-25 08:34:00,23.5,10.6,29.26,South,180,3.8,4.0,57,0.00,,---,0.00,VWS V14.01,2013-01-25 14:34:00,
2013-01-25 08:39:00,23.7,10.7,29.26,South,180,3.4,4.3,57,0.00,,---,0.00,VWS V14.01,2013-01-25 14:39:00,
2013-01-25 08:44:00,23.7,10.7,29.26,South,180,3.4,3.4,57,0.00,,---,0.00,VWS V14.01,2013-01-25 14:44:00,
2013-01-25 08:49:00,24.1,11.1,29.26,SW,225,2.7,2.7,57,0.00,,---,0.00,VWS V14.01,2013-01-25 14:49:00,
2013-01-25 08:54:00,24.1,11.1,29.26,SW,225,3.8,3.8,57,0.00,,---,0.00,VWS V14.01,2013-01-25 14:54:00,
2013-01-25 08:59:00,24.4,11.4,29.26,SSW,202,2.0,2.0,57,0.00,,---,0.00,VWS V14.01,2013-01-25 14:59:00,
2013-01-25 09:04:00,24.6,11.6,29.26,SSW,202,5.4,5.4,57,0.00,,---,0.00,VWS V14.01,2013-01-25 15:04:00,
2013-01-25 09:09:00,24.6,11.6,29.26,SSW,202,3.6,3.6,57,0.00,,---,0.00,VWS V14.01,2013-01-25 15:09:00,
2013-01-25 09:14:00,24.8,11.7,29.26,SW,225,4.3,4.3,57,0.00,,---,0.00,VWS V14.01,2013-01-25 15:14:00,
2013-01-25 09:19:00,25.0,11.5,29.26,South,180,3.8,3.8,56,0.00,,---,0.00,VWS V14.01,2013-01-25 15:19:00,
2013-01-25 09:24:00,25.2,11.7,29.26,SSW,202,2.7,2.9,56,0.00,,---,0.00,VWS V14.01,2013-01-25 15:24:00,
2013-01-25 09:30:00,25.3,12.2,29.26,SSW,202,3.6,3.6,57,0.00,,---,0.00,VWS V14.01,2013-01-25 15:30:00,
2013-01-25 09:35:00,25.7,12.6,29.26,SSW,202,3.4,5.8,57,0.00,,---,0.00,VWS V14.01,2013-01-25 15:35:00,
2013-01-25 09:40:00,25.7,12.6,29.26,SW,225,3.6,3.6,57,0.00,,---,0.00,VWS V14.01,2013-01-25 15:40:00,
2013-01-25 09:45:00,26.1,12.9,29.26,SSW,202,2.2,3.4,57,0.00,,---,0.00,VWS V14.01,2013-01-25 15:45:00,
2013-01-25 09:50:00,26.4,13.3,29.26,SW,225,4.0,4.9,57,0.00,,---,0.00,VWS V14.01,2013-01-25 15:50:00,
2013-01-25 09:55:00,26.6,13.0,29.26,SW,225,2.9,3.6,56,0.00,,---,0.00,VWS V14.01,2013-01-25 15:55:00,
2013-01-25 10:00:00,26.8,13.2,29.26,SW,225,5.6,5.6,56,0.00,,---,0.00,VWS V14.01,2013-01-25 16:00:00,
2013-01-25 10:05:00,27.0,13.4,29.26,SW,225,6.3,6.3,56,0.00,,---,0.00,VWS V14.01,2013-01-25 16:05:00,
2013-01-25 10:10:00,27.1,13.1,29.26,WSW,248,4.7,6.3,55,0.00,,---,0.00,VWS V14.01,2013-01-25 16:10:00,
2013-01-25 10:15:00,27.3,13.3,29.26,SW,225,2.9,4.3,55,0.00,,---,0.00,VWS V14.01,2013-01-25 16:15:00,
2013-01-25 10:20:00,27.7,13.6,29.26,West,270,4.0,4.9,55,0.00,,---,0.00,VWS V14.01,2013-01-25 16:20:00,
2013-01-25 10:25:00,27.7,13.2,29.26,SW,225,5.4,5.6,54,0.00,,---,0.00,VWS V14.01,2013-01-25 16:25:00,
2013-01-25 10:30:00,27.9,13.8,29.26,SW,225,7.8,7.8,55,0.00,,---,0.00,VWS V14.01,2013-01-25 16:30:00,
2013-01-25 10:35:00,28.2,14.1,29.26,SW,225,6.3,6.3,55,0.00,,---,0.00,VWS V14.01,2013-01-25 16:35:00,
2013-01-25 10:40:00,28.4,13.9,29.26,SSW,202,3.4,3.4,54,0.00,,---,0.00,VWS V14.01,2013-01-25 16:40:00,
2013-01-25 10:45:00,29.1,14.6,29.26,WSW,248,8.5,8.5,54,0.00,,---,0.00,VWS V14.01,2013-01-25 16:45:00,
2013-01-25 10:51:00,29.7,15.1,29.26,WSW,248,4.0,5.6,54,0.00,,---,0.00,VWS V14.01,2013-01-25 16:51:00,
2013-01-25 10:56:00,30.0,15.4,29.26,SW,225,7.8,7.8,54,0.00,,---,0.00,VWS V14.01,2013-01-25 16:56:00,
2013-01-25 11:01:00,30.2,15.1,29.23,SW,225,3.1,3.1,53,0.00,,---,0.00,VWS V14.01,2013-01-25 17:01:00,
2013-01-25 11:06:00,30.6,15.5,29.23,SSW,202,3.6,3.6,53,0.00,,---,0.00,VWS V14.01,2013-01-25 17:06:00,
2013-01-25 11:11:00,31.1,16.0,29.23,SW,225,3.1,3.8,53,0.00,,---,0.00,VWS V14.01,2013-01-25 17:11:00,
2013-01-25 11:16:00,31.6,16.5,29.23,West,270,4.0,4.3,53,0.00,,---,0.00,VWS V14.01,2013-01-25 17:16:00,
2013-01-25 11:21:00,32.0,16.4,29.23,WSW,248,7.2,7.2,52,0.00,,---,0.00,VWS V14.01,2013-01-25 17:21:00,
2013-01-25 11:26:00,31.5,15.9,29.23,WSW,248,11.0,11.0,52,0.00,,---,0.00,VWS V14.01,2013-01-25 17:26:00,
2013-01-25 11:31:00,32.0,16.4,29.23,SSW,202,5.4,6.3,52,0.00,,---,0.00,VWS V14.01,2013-01-25 17:31:00,
2013-01-25 11:36:00,32.2,16.5,29.23,West,270,5.8,5.8,52,0.00,,---,0.00,VWS V14.01,2013-01-25 17:36:00,
2013-01-25 11:41:00,31.8,16.2,29.23,WSW,248,5.8,6.3,52,0.00,,---,0.00,VWS V14.01,2013-01-25 17:41:00,
2013-01-25 11:46:00,32.4,16.7,29.20,SW,225,9.4,9.4,52,0.00,,---,0.00,VWS V14.01,2013-01-25 17:46:00,
2013-01-25 11:51:00,32.5,16.4,29.20,West,270,6.0,8.1,51,0.00,,---,0.00,VWS V14.01,2013-01-25 17:51:00,
2013-01-25 11:56:00,32.4,16.3,29.20,West,270,5.8,5.8,51,0.00,,---,0.00,VWS V14.01,2013-01-25 17:56:00,
2013-01-25 12:01:00,32.4,16.3,29.20,SW,225,9.8,9.8,51,0.00,,---,0.00,VWS V14.01,2013-01-25 18:01:00,
2013-01-25 12:06:00,32.2,16.1,29.20,SW,225,5.4,6.3,51,0.00,,---,0.00,VWS V14.01,2013-01-25 18:06:00,
2013-01-25 12:11:00,32.5,16.4,29.20,West,270,5.4,10.3,51,0.00,,---,0.00,VWS V14.01,2013-01-25 18:11:00,
2013-01-25 12:16:00,32.7,16.6,29.20,WSW,248,8.1,9.8,51,0.00,,---,0.00,VWS V14.01,2013-01-25 18:16:00,
2013-01-25 12:21:00,32.7,16.6,29.20,SW,225,5.8,9.6,51,0.00,,---,0.00,VWS V14.01,2013-01-25 18:21:00,
2013-01-25 12:26:00,33.1,16.9,29.20,South,180,5.6,5.6,51,0.00,,---,0.00,VWS V14.01,2013-01-25 18:26:00,
2013-01-25 12:31:00,33.1,16.9,29.20,NNW,338,4.3,4.3,51,0.00,,---,0.00,VWS V14.01,2013-01-25 18:31:00,
2013-01-25 12:36:00,33.1,16.9,29.20,SW,225,13.2,13.2,51,0.00,,---,0.00,VWS V14.01,2013-01-25 18:36:00,
2013-01-25 12:41:00,33.1,16.9,29.20,West,270,4.7,4.7,51,0.00,,---,0.00,VWS V14.01,2013-01-25 18:41:00,
2013-01-25 12:46:00,33.3,17.1,29.20,SSW,202,6.0,6.0,51,0.00,,---,0.00,VWS V14.01,2013-01-25 18:46:00,
2013-01-25 12:51:00,33.6,17.0,29.20,SW,225,2.5,6.5,50,0.00,,---,0.00,VWS V14.01,2013-01-25 18:51:00,
2013-01-25 12:56:00,33.6,17.0,29.20,SW,225,9.2,9.2,50,0.00,,---,0.00,VWS V14.01,2013-01-25 18:56:00,
2013-01-25 13:01:00,33.8,17.1,29.20,WNW,292,8.7,8.7,50,0.00,,---,0.00,VWS V14.01,2013-01-25 19:01:00,
2013-01-25 13:06:00,34.0,17.3,29.20,WSW,248,5.4,5.4,50,0.00,,---,0.00,VWS V14.01,2013-01-25 19:06:00,
2013-01-25 13:11:00,34.0,17.3,29.20,WSW,248,5.8,8.1,50,0.00,,---,0.00,VWS V14.01,2013-01-25 19:11:00,
2013-01-25 13:16:00,34.0,17.3,29.17,SW,225,8.5,8.5,50,0.00,,---,0.00,VWS V14.01,2013-01-25 19:16:00,
2013-01-25 13:21:00,34.2,17.5,29.17,West,270,5.4,7.8,50,0.00,,---,0.00,VWS V14.01,2013-01-25 19:21:00,
2013-01-25 13:26:00,34.2,17.5,29.17,NW,315,8.1,10.7,50,0.00,,---,0.00,VWS V14.01,2013-01-25 19:26:00,
2013-01-25 13:31:00,34.5,17.8,29.17,WSW,248,4.0,7.6,50,0.00,,---,0.00,VWS V14.01,2013-01-25 19:31:00,
2013-01-25 13:36:00,34.5,17.3,29.17,WSW,248,11.0,11.0,49,0.00,,---,0.00,VWS V14.01,2013-01-25 19:36:00,
2013-01-25 13:41:00,34.5,17.3,29.17,West,270,11.0,11.0,49,0.00,,---,0.00,VWS V14.01,2013-01-25 19:41:00,
2013-01-25 13:46:00,34.7,17.5,29.17,West,270,8.5,8.5,49,0.00,,---,0.00,VWS V14.01,2013-01-25 19:46:00,
2013-01-25 13:51:00,35.1,17.8,29.17,West,270,8.1,8.1,49,0.00,,---,0.00,VWS V14.01,2013-01-25 19:51:00,
2013-01-25 13:56:00,35.1,17.8,29.17,WSW,248,7.8,7.8,49,0.00,,---,0.00,VWS V14.01,2013-01-25 19:56:00,
2013-01-25 14:01:00,35.4,18.2,29.17,West,270,4.9,7.4,49,0.00,,---,0.00,VWS V14.01,2013-01-25 20:01:00,
2013-01-25 14:06:00,35.4,18.2,29.17,WSW,248,6.3,7.8,49,0.00,,---,0.00,VWS V14.01,2013-01-25 20:06:00,
2013-01-25 14:11:00,35.6,17.9,29.17,West,270,3.8,5.8,48,0.00,,---,0.00,VWS V14.01,2013-01-25 20:11:00,
2013-01-25 14:16:00,35.8,18.5,29.17,SW,225,7.4,7.4,49,0.00,,---,0.00,VWS V14.01,2013-01-25 20:16:00,
2013-01-25 14:21:00,36.0,17.7,29.17,West,270,5.4,9.4,47,0.00,,---,0.00,VWS V14.01,2013-01-25 20:21:00,
2013-01-25 14:26:00,35.8,17.5,29.17,NW,315,12.8,12.8,47,0.00,,---,0.00,VWS V14.01,2013-01-25 20:26:00,
2013-01-25 14:31:00,35.8,18.0,29.17,SW,225,7.6,7.6,48,0.00,,---,0.00,VWS V14.01,2013-01-25 20:31:00,
2013-01-25 14:36:00,35.8,17.5,29.17,West,270,5.6,5.6,47,0.00,,---,0.00,VWS V14.01,2013-01-25 20:36:00,
2013-01-25 14:41:00,36.0,17.7,29.17,NW,315,10.7,10.7,47,0.00,,---,0.00,VWS V14.01,2013-01-25 20:41:00,
2013-01-25 14:46:00,35.8,17.5,29.17,West,270,14.5,14.5,47,0.00,,---,0.00,VWS V14.01,2013-01-25 20:46:00,
2013-01-25 14:51:00,36.1,17.9,29.17,WNW,292,6.3,6.5,47,0.00,,---,0.00,VWS V14.01,2013-01-25 20:51:00,
2013-01-25 14:56:00,36.3,18.0,29.17,SSW,202,9.8,9.8,47,0.00,,---,0.00,VWS V14.01,2013-01-25 20:56:00,
2013-01-25 15:01:00,36.3,17.5,29.17,West,270,11.0,14.3,46,0.00,,---,0.00,VWS V14.01,2013-01-25 21:01:00,
2013-01-25 15:06:00,36.3,17.5,29.17,WSW,248,11.0,11.0,46,0.00,,---,0.00,VWS V14.01,2013-01-25 21:06:00,
2013-01-25 15:11:00,36.3,18.0,29.17,WNW,292,8.5,10.1,47,0.00,,---,0.00,VWS V14.01,2013-01-25 21:11:00,
2013-01-25 15:16:00,36.3,17.5,29.17,West,270,7.6,7.6,46,0.00,,---,0.00,VWS V14.01,2013-01-25 21:16:00,
2013-01-25 15:21:00,36.3,17.5,29.17,WNW,292,9.6,11.0,46,0.00,,---,0.00,VWS V14.01,2013-01-25 21:21:00,
2013-01-25 15:26:00,36.3,17.5,29.17,West,270,7.6,7.6,46,0.00,,---,0.00,VWS V14.01,2013-01-25 21:26:00,
2013-01-25 15:31:00,36.5,18.2,29.17,WSW,248,6.9,11.0,47,0.00,,---,0.00,VWS V14.01,2013-01-25 21:31:00,
2013-01-25 15:36:00,36.3,17.5,29.17,SW,225,8.5,10.3,46,0.00,,---,0.00,VWS V14.01,2013-01-25 21:36:00,
2013-01-25 15:41:00,36.3,17.0,29.17,WSW,248,6.0,10.3,45,0.00,,---,0.00,VWS V14.01,2013-01-25 21:41:00,
2013-01-25 15:46:00,36.3,17.5,29.17,West,270,5.8,5.8,46,0.00,,---,0.00,VWS V14.01,2013-01-25 21:46:00,
2013-01-25 15:51:00,36.5,17.7,29.17,SW,225,7.2,7.2,46,0.00,,---,0.00,VWS V14.01,2013-01-25 21:51:00,
2013-01-25 15:56:00,36.3,17.5,29.17,WSW,248,3.6,4.3,46,0.00,,---,0.00,VWS V14.01,2013-01-25 21:56:00,
2013-01-25 16:01:00,36.3,17.5,29.17,SW,225,6.5,6.5,46,0.00,,---,0.00,VWS V14.01,2013-01-25 22:01:00,
2013-01-25 16:06:00,36.3,17.5,29.17,West,270,4.3,5.4,46,0.00,,---,0.00,VWS V14.01,2013-01-25 22:06:00,
2013-01-25 16:11:00,36.3,17.5,29.17,WNW,292,6.5,6.5,46,0.00,,---,0.00,VWS V14.01,2013-01-25 22:11:00,
2013-01-25 16:16:00,36.1,17.4,29.17,West,270,6.5,7.8,46,0.00,,---,0.00,VWS V14.01,2013-01-25 22:16:00,
2013-01-25 16:21:00,36.1,17.4,29.17,SW,225,7.6,7.6,46,0.00,,---,0.00,VWS V14.01,2013-01-25 22:21:00,
2013-01-25 16:27:00,36.1,17.4,29.17,West,270,8.5,8.5,46,0.00,,---,0.00,VWS V14.01,2013-01-25 22:27:00,
2013-01-25 16:32:00,36.0,17.2,29.17,West,270,6.5,9.4,46,0.00,,---,0.00,VWS V14.01,2013-01-25 22:32:00,
2013-01-25 16:37:00,35.8,17.0,29.17,West,270,4.0,4.0,46,0.00,,---,0.00,VWS V14.01,2013-01-25 22:37:00,
2013-01-25 16:42:00,35.6,16.9,29.17,WNW,292,7.6,9.6,46,0.00,,---,0.00,VWS V14.01,2013-01-25 22:42:00,
2013-01-25 16:47:00,35.6,16.4,29.20,West,270,10.7,10.7,45,0.00,,---,0.00,VWS V14.01,2013-01-25 22:47:00,
2013-01-25 16:52:00,35.4,16.7,29.20,West,270,7.6,7.6,46,0.00,,---,0.00,VWS V14.01,2013-01-25 22:52:00,
2013-01-25 16:57:00,35.4,16.7,29.20,West,270,5.8,6.5,46,0.00,,---,0.00,VWS V14.01,2013-01-25 22:57:00,
2013-01-25 17:02:00,35.2,16.5,29.20,SW,225,4.9,7.2,46,0.00,,---,0.00,VWS V14.01,2013-01-25 23:02:00,
2013-01-25 17:07:00,35.1,16.4,29.20,West,270,4.0,4.0,46,0.00,,---,0.00,VWS V14.01,2013-01-25 23:07:00,
2013-01-25 17:12:00,34.9,16.2,29.20,WSW,248,5.4,6.3,46,0.00,,---,0.00,VWS V14.01,2013-01-25 23:12:00,
2013-01-25 17:17:00,34.9,16.2,29.20,WSW,248,6.7,6.7,46,0.00,,---,0.00,VWS V14.01,2013-01-25 23:17:00,
2013-01-25 17:22:00,34.9,16.2,29.20,WNW,292,6.0,6.3,46,0.00,,---,0.00,VWS V14.01,2013-01-25 23:22:00,
2013-01-25 17:28:00,34.7,16.0,29.20,West,270,5.8,9.6,46,0.00,,---,0.00,VWS V14.01,2013-01-25 23:28:00,
2013-01-25 17:33:00,34.5,15.9,29.20,WSW,248,7.4,7.4,46,0.00,,---,0.00,VWS V14.01,2013-01-25 23:33:00,
2013-01-25 17:38:00,34.5,16.4,29.20,West,270,7.8,7.8,47,0.00,,---,0.00,VWS V14.01,2013-01-25 23:38:00,
2013-01-25 17:43:00,34.3,16.2,29.20,West,270,7.4,7.4,47,0.00,,---,0.00,VWS V14.01,2013-01-25 23:43:00,
2013-01-25 17:48:00,34.3,16.2,29.20,WSW,248,5.6,5.6,47,0.00,,---,0.00,VWS V14.01,2013-01-25 23:48:00,
2013-01-25 17:53:00,34.2,16.0,29.20,West,270,3.8,5.6,47,0.00,,---,0.00,VWS V14.01,2013-01-25 23:53:00,
2013-01-25 17:58:00,34.0,15.9,29.20,WNW,292,4.7,8.1,47,0.00,,---,0.00,VWS V14.01,2013-01-25 23:58:00,
2013-01-25 18:03:00,34.0,15.9,29.20,WSW,248,4.9,4.9,47,0.00,,---,0.00,VWS V14.01,2013-01-26 00:03:00,
2013-01-25 18:08:00,34.0,15.9,29.20,West,270,7.6,7.6,47,0.00,,---,0.00,VWS V14.01,2013-01-26 00:08:00,
2013-01-25 18:13:00,33.8,15.7,29.20,West,270,6.0,9.8,47,0.00,,---,0.00,VWS V14.01,2013-01-26 00:13:00,
2013-01-25 18:18:00,33.8,15.7,29.23,WNW,292,5.8,7.4,47,0.00,,---,0.00,VWS V14.01,2013-01-26 00:18:00,
2013-01-25 18:23:00,33.6,16.0,29.23,West,270,2.5,4.0,48,0.00,,---,0.00,VWS V14.01,2013-01-26 00:23:00,
2013-01-25 18:28:00,33.6,16.0,29.23,WSW,248,5.6,5.6,48,0.00,,---,0.00,VWS V14.01,2013-01-26 00:28:00,
2013-01-25 18:34:00,33.6,16.0,29.23,West,270,4.5,4.5,48,0.00,,---,0.00,VWS V14.01,2013-01-26 00:34:00,
2013-01-25 18:39:00,33.4,15.9,29.23,West,270,4.9,9.8,48,0.00,,---,0.00,VWS V14.01,2013-01-26 00:39:00,
2013-01-25 18:44:00,33.4,15.9,29.23,West,270,6.5,6.5,48,0.00,,---,0.00,VWS V14.01,2013-01-26 00:44:00,
2013-01-25 18:49:00,33.3,15.7,29.23,West,270,3.6,6.3,48,0.00,,---,0.00,VWS V14.01,2013-01-26 00:49:00,
2013-01-25 18:54:00,33.1,15.5,29.23,West,270,3.6,3.6,48,0.00,,---,0.00,VWS V14.01,2013-01-26 00:54:00,
2013-01-25 18:59:00,33.1,15.5,29.23,WNW,292,3.1,5.6,48,0.00,,---,0.00,VWS V14.01,2013-01-26 00:59:00,
2013-01-25 19:04:00,33.1,16.0,29.23,WNW,292,5.6,6.0,49,0.00,,---,0.00,VWS V14.01,2013-01-26 01:04:00,
2013-01-25 19:09:00,32.7,15.7,29.23,North,0,5.8,6.5,49,0.00,,---,0.00,VWS V14.01,2013-01-26 01:09:00,
2013-01-25 19:14:00,32.7,15.7,29.23,West,270,2.9,3.8,49,0.00,,---,0.00,VWS V14.01,2013-01-26 01:14:00,
2013-01-25 19:19:00,32.7,15.7,29.23,WNW,292,2.9,5.4,49,0.00,,---,0.00,VWS V14.01,2013-01-26 01:19:00,
2013-01-25 19:24:00,32.5,15.5,29.23,NW,315,5.6,5.6,49,0.00,,---,0.00,VWS V14.01,2013-01-26 01:24:00,
2013-01-25 19:29:00,32.4,15.8,29.23,NW,315,4.3,4.3,50,0.00,,---,0.00,VWS V14.01,2013-01-26 01:29:00,
2013-01-25 19:34:00,32.2,15.6,29.26,West,270,7.8,7.8,50,0.00,,---,0.00,VWS V14.01,2013-01-26 01:34:00,
2013-01-25 19:39:00,32.2,15.6,29.26,West,270,3.4,3.4,50,0.00,,---,0.00,VWS V14.01,2013-01-26 01:39:00,
2013-01-25 19:44:00,32.0,15.5,29.26,West,270,6.0,6.0,50,0.00,,---,0.00,VWS V14.01,2013-01-26 01:44:00,
2013-01-25 19:49:00,32.0,15.5,29.26,West,270,2.7,9.2,50,0.00,,---,0.00,VWS V14.01,2013-01-26 01:49:00,
2013-01-25 19:54:00,31.8,15.3,29.26,NNW,338,3.8,3.8,50,0.00,,---,0.00,VWS V14.01,2013-01-26 01:54:00,
2013-01-25 19:59:00,31.6,15.1,29.26,WNW,292,5.4,5.4,50,0.00,,---,0.00,VWS V14.01,2013-01-26 01:59:00,
2013-01-25 20:04:00,31.5,15.0,29.26,West,270,5.4,5.4,50,0.00,,---,0.00,VWS V14.01,2013-01-26 02:04:00,
2013-01-25 20:09:00,31.3,14.8,29.26,NW,315,4.0,4.0,50,0.00,,---,0.00,VWS V14.01,2013-01-26 02:09:00,
2013-01-25 20:14:00,31.1,15.1,29.26,West,270,4.3,4.3,51,0.00,,---,0.00,VWS V14.01,2013-01-26 02:14:00,
2013-01-25 20:19:00,31.1,15.1,29.26,WSW,248,3.1,3.8,51,0.00,,---,0.00,VWS V14.01,2013-01-26 02:19:00,
2013-01-25 20:24:00,30.9,14.9,29.26,West,270,5.4,5.4,51,0.00,,---,0.00,VWS V14.01,2013-01-26 02:24:00,
2013-01-25 20:29:00,30.7,14.8,29.26,West,270,5.4,6.0,51,0.00,,---,0.00,VWS V14.01,2013-01-26 02:29:00,
2013-01-25 20:34:00,30.6,14.6,29.26,West,270,4.9,5.4,51,0.00,,---,0.00,VWS V14.01,2013-01-26 02:34:00,
2013-01-25 20:39:00,30.4,14.4,29.26,West,270,3.1,3.1,51,0.00,,---,0.00,VWS V14.01,2013-01-26 02:39:00,
2013-01-25 20:44:00,30.4,14.4,29.26,West,270,3.1,3.1,51,0.00,,---,0.00,VWS V14.01,2013-01-26 02:44:00,
2013-01-25 20:49:00,30.2,14.7,29.26,West,270,3.1,3.1,52,0.00,,---,0.00,VWS V14.01,2013-01-26 02:49:00,
2013-01-25 20:54:00,30.2,14.7,29.26,NNW,338,3.1,3.8,52,0.00,,---,0.00,VWS V14.01,2013-01-26 02:54:00,
2013-01-25 20:59:00,30.2,14.7,29.26,West,270,3.1,4.0,52,0.00,,---,0.00,VWS V14.01,2013-01-26 02:59:00,
2013-01-25 21:04:00,30.0,14.5,29.29,WNW,292,6.7,6.7,52,0.00,,---,0.00,VWS V14.01,2013-01-26 03:04:00,
2013-01-25 21:09:00,30.0,14.5,29.29,WNW,292,3.8,3.8,52,0.00,,---,0.00,VWS V14.01,2013-01-26 03:09:00,
2013-01-25 21:14:00,30.0,14.5,29.29,North,0,2.7,3.6,52,0.00,,---,0.00,VWS V14.01,2013-01-26 03:14:00,
2013-01-25 21:19:00,30.0,14.5,29.29,NNW,338,4.0,4.0,52,0.00,,---,0.00,VWS V14.01,2013-01-26 03:19:00,
2013-01-25 21:24:00,29.7,14.2,29.29,North,0,3.6,4.9,52,0.00,,---,0.00,VWS V14.01,2013-01-26 03:24:00,
2013-01-25 21:29:00,29.5,14.0,29.29,NW,315,7.8,7.8,52,0.00,,---,0.00,VWS V14.01,2013-01-26 03:29:00,
2013-01-25 21:34:00,29.3,13.9,29.29,NW,315,8.7,8.7,52,0.00,,---,0.00,VWS V14.01,2013-01-26 03:34:00,
2013-01-25 21:39:00,29.1,13.7,29.29,West,270,5.6,7.8,52,0.00,,---,0.00,VWS V14.01,2013-01-26 03:39:00,
2013-01-25 21:44:00,28.8,13.4,29.29,NNW,338,3.6,3.8,52,0.00,,---,0.00,VWS V14.01,2013-01-26 03:44:00,
2013-01-25 21:49:00,28.4,13.0,29.29,NNW,338,6.5,6.5,52,0.00,,---,0.00,VWS V14.01,2013-01-26 03:49:00,
2013-01-25 21:55:00,28.0,12.7,29.29,NNW,338,4.9,5.6,52,0.00,,---,0.00,VWS V14.01,2013-01-26 03:55:00,
2013-01-25 22:00:00,27.7,12.4,29.32,North,0,3.8,6.0,52,0.00,,---,0.00,VWS V14.01,2013-01-26 04:00:00,
2013-01-25 22:05:00,27.5,12.2,29.32,WNW,292,2.9,2.9,52,0.00,,---,0.00,VWS V14.01,2013-01-26 04:05:00,
2013-01-25 22:10:00,27.0,11.3,29.32,NW,315,4.9,4.9,51,0.00,,---,0.00,VWS V14.01,2013-01-26 04:10:00,
2013-01-25 22:15:00,27.0,11.3,29.32,West,270,10.1,10.1,51,0.00,,---,0.00,VWS V14.01,2013-01-26 04:15:00,
2013-01-25 22:20:00,26.4,10.8,29.32,West,270,5.8,5.8,51,0.00,,---,0.00,VWS V14.01,2013-01-26 04:20:00,
2013-01-25 22:25:00,26.2,10.6,29.32,NNW,338,5.4,5.4,51,0.00,,---,0.00,VWS V14.01,2013-01-26 04:25:00,
2013-01-25 22:30:00,26.1,10.4,29.32,NW,315,4.7,4.7,51,0.00,,---,0.00,VWS V14.01,2013-01-26 04:30:00,
2013-01-25 22:35:00,26.1,10.4,29.32,NNW,338,8.5,8.5,51,0.00,,---,0.00,VWS V14.01,2013-01-26 04:35:00,
2013-01-25 22:40:00,25.9,9.8,29.32,WNW,292,4.3,4.3,50,0.00,,---,0.00,VWS V14.01,2013-01-26 04:40:00,
2013-01-25 22:46:00,25.3,8.9,29.32,North,0,5.8,6.0,49,0.00,,---,0.00,VWS V14.01,2013-01-26 04:46:00,
2013-01-25 22:51:00,25.0,8.5,29.32,WNW,292,4.0,4.0,49,0.00,,---,0.00,VWS V14.01,2013-01-26 04:51:00,
2013-01-25 22:56:00,24.8,8.4,29.32,NW,315,3.6,6.0,49,0.00,,---,0.00,VWS V14.01,2013-01-26 04:56:00,
2013-01-25 23:00:00,24.6,8.2,29.35,NW,315,3.1,5.6,49,0.00,,---,0.00,VWS V14.01,2013-01-26 05:00:00,
2013-01-25 23:02:00,24.6,8.2,29.35,WNW,292,4.0,4.0,49,0.00,,---,0.00,VWS V14.01,2013-01-26 05:02:00,
2013-01-25 23:08:00,24.3,7.9,29.35,NNW,338,5.6,6.3,49,0.00,,---,0.00,VWS V14.01,2013-01-26 05:08:00,
2013-01-25 23:13:00,24.1,7.7,29.35,NW,315,3.8,3.8,49,0.00,,---,0.00,VWS V14.01,2013-01-26 05:13:00,
2013-01-25 23:18:00,23.9,7.5,29.35,North,0,4.9,4.9,49,0.00,,---,0.00,VWS V14.01,2013-01-26 05:18:00,
2013-01-25 23:23:00,23.5,6.8,29.35,NNW,338,7.4,9.8,48,0.00,,---,0.00,VWS V14.01,2013-01-26 05:23:00,
2013-01-25 23:28:00,23.5,6.8,29.35,NNW,338,6.0,6.0,48,0.00,,---,0.00,VWS V14.01,2013-01-26 05:28:00,
2013-01-25 23:33:00,23.4,6.6,29.35,NNE,22,5.8,5.8,48,0.00,,---,0.00,VWS V14.01,2013-01-26 05:33:00,
2013-01-25 23:38:00,23.2,6.4,29.35,NNW,338,4.0,5.8,48,0.00,,---,0.00,VWS V14.01,2013-01-26 05:38:00,
2013-01-25 23:43:00,22.8,6.1,29.35,NNW,338,5.4,5.4,48,0.00,,---,0.00,VWS V14.01,2013-01-26 05:43:00,
2013-01-25 23:48:00,22.6,5.9,29.35,North,0,3.6,4.9,48,0.00,,---,0.00,VWS V14.01,2013-01-26 05:48:00,
2013-01-25 23:53:00,22.6,5.9,29.35,NNW,338,5.8,5.8,48,0.00,,---,0.00,VWS V14.01,2013-01-26 05:53:00,
2013-01-25 23:58:00,22.3,5.6,29.35,NNW,338,7.4,7.4,48,0.00,,---,0.00,VWS V14.01,2013-01-26 05:58:00,